createdAt,value
2018-11-13T00:00:15.267Z,98221.67
2018-11-13T00:01:18.747Z,98224.15
2018-11-13T00:02:22.356Z,98218.25
2018-11-13T00:03:25.890Z,98219.56
2018-11-13T00:04:30.255Z,98233.05
2018-11-13T00:05:32.960Z,98235.28
2018-11-13T00:06:35.688Z,98244.97
2018-11-13T00:07:39.097Z,98245.84
2018-11-13T00:08:42.456Z,98249.38
2018-11-13T00:09:45.176Z,98246.33
2018-11-13T00:10:48.819Z,98245.30
2018-11-13T00:11:51.537Z,98255.21
2018-11-13T00:12:54.227Z,98252.48
2018-11-13T00:13:57.526Z,98255.08
2018-11-13T00:15:00.275Z,98256.20
2018-11-13T00:16:02.996Z,98261.39
2018-11-13T00:17:06.275Z,98260.52
2018-11-13T00:18:08.946Z,98254.27
2018-11-13T00:19:11.663Z,98260.98
2018-11-13T00:21:30.570Z,98267.95
2018-11-13T00:22:34.940Z,98264.89
2018-11-13T00:23:37.957Z,98270.34
2018-11-13T00:24:40.635Z,98274.42
2018-11-13T00:25:43.544Z,98274.83
2018-11-13T00:26:48.179Z,98272.93
2018-11-13T00:27:50.871Z,98271.08
2018-11-13T00:28:53.568Z,98275.01
2018-11-13T00:29:56.573Z,98266.52
2018-11-13T00:30:59.292Z,98266.67
2018-11-13T00:32:03.643Z,98270.43
2018-11-13T00:33:07.081Z,98270.52
2018-11-13T00:34:09.784Z,98261.39
2018-11-13T00:35:13.309Z,98272.20
2018-11-13T00:36:16.762Z,98262.09
2018-11-13T00:37:19.441Z,98265.07
2018-11-13T00:38:22.143Z,98263.00
2018-11-13T00:39:25.426Z,98262.18
2018-11-13T00:40:28.118Z,98261.14
2018-11-13T00:41:31.383Z,98256.97
2018-11-13T00:42:34.348Z,98254.73
2018-11-13T00:43:38.676Z,98254.86
2018-11-13T00:44:41.405Z,98253.66
2018-11-13T00:45:44.420Z,98258.08
2018-11-13T00:46:49.444Z,98265.38
2018-11-13T00:47:52.975Z,98261.58
2018-11-13T00:48:57.593Z,98268.88
2018-11-13T00:50:01.203Z,98267.36
2018-11-13T00:51:05.104Z,98267.45
2018-11-13T00:52:09.123Z,98263.78
2018-11-13T00:53:11.848Z,98264.20
2018-11-13T00:54:14.585Z,98262.27
2018-11-13T00:55:18.536Z,98258.67
2018-11-13T00:56:22.530Z,98259.78
2018-11-13T00:57:25.848Z,98260.58
2018-11-13T00:58:28.532Z,98262.34
2018-11-13T00:59:32.633Z,98264.20
2018-11-13T01:00:36.464Z,98269.15
2018-11-13T01:01:39.431Z,98253.68
2018-11-13T01:02:42.727Z,98253.47
2018-11-13T01:03:45.414Z,98255.54
2018-11-13T01:04:48.251Z,98258.26
2018-11-13T01:05:50.990Z,98260.41
2018-11-13T01:06:53.746Z,98259.54
2018-11-13T01:07:56.792Z,98263.21
2018-11-13T01:08:59.594Z,98262.59
2018-11-13T01:10:02.304Z,98270.84
2018-11-13T01:11:05.508Z,98272.74
2018-11-13T01:12:09.288Z,98276.45
2018-11-13T01:13:11.997Z,98277.32
2018-11-13T01:14:15.828Z,98280.62
2018-11-13T01:15:19.636Z,98280.70
2018-11-13T01:16:23.277Z,98275.88
2018-11-13T01:17:27.707Z,98272.91
2018-11-13T01:18:30.369Z,98275.71
2018-11-13T01:19:33.083Z,98271.55
2018-11-13T01:20:36.207Z,98276.91
2018-11-13T01:21:39.334Z,98275.33
2018-11-13T01:22:42.427Z,98278.92
2018-11-13T01:23:45.122Z,98274.84
2018-11-13T01:24:47.881Z,98270.05
2018-11-13T01:25:50.565Z,98272.53
2018-11-13T01:26:53.251Z,98268.36
2018-11-13T01:27:56.218Z,98265.31
2018-11-13T01:28:58.917Z,98265.64
2018-11-13T01:30:01.567Z,98259.62
2018-11-13T01:31:05.136Z,98264.82
2018-11-13T01:32:07.819Z,98266.51
2018-11-13T01:33:10.507Z,98267.16
2018-11-13T01:34:13.654Z,98264.98
2018-11-13T01:35:17.530Z,98258.05
2018-11-13T01:36:20.212Z,98248.65
2018-11-13T01:37:23.280Z,98246.75
2018-11-13T01:38:26.177Z,98241.55
2018-11-13T01:39:29.044Z,98244.56
2018-11-13T01:40:31.797Z,98248.36
2018-11-13T01:41:34.544Z,98252.03
2018-11-13T01:42:37.305Z,98265.72
2018-11-13T01:43:40.468Z,98275.25
2018-11-13T01:44:43.379Z,98281.48
2018-11-13T01:45:46.587Z,98277.81
2018-11-13T01:46:50.163Z,98280.99
2018-11-13T01:47:53.873Z,98285.89
2018-11-13T01:48:56.574Z,98278.35
2018-11-13T01:49:59.539Z,98286.61
2018-11-13T01:51:02.189Z,98282.93
2018-11-13T01:52:04.860Z,98281.57
2018-11-13T01:53:08.145Z,98274.84
2018-11-13T01:54:11.336Z,98275.17
2018-11-13T01:55:15.320Z,98279.17
2018-11-13T01:56:21.559Z,98273.73
2018-11-13T01:57:27.788Z,98278.14
2018-11-13T01:58:30.831Z,98277.89
2018-11-13T01:59:33.623Z,98275.71
2018-11-13T02:00:36.297Z,98277.56
2018-11-13T02:01:39.762Z,98278.84
2018-11-13T02:02:43.383Z,98273.98
2018-11-13T02:03:46.061Z,98280.29
2018-11-13T02:04:48.774Z,98285.73
2018-11-13T02:05:51.466Z,98285.90
2018-11-13T02:06:54.331Z,98288.87
2018-11-13T02:07:57.870Z,98284.30
2018-11-13T02:09:01.059Z,98286.77
2018-11-13T02:10:03.999Z,98280.13
2018-11-13T02:11:08.345Z,98283.17
2018-11-13T02:12:12.692Z,98289.73
2018-11-13T02:13:15.368Z,98296.53
2018-11-13T02:14:18.058Z,98296.63
2018-11-13T02:15:21.579Z,98293.03
2018-11-13T02:16:24.258Z,98292.22
2018-11-13T02:17:28.779Z,98289.03
2018-11-13T02:18:31.576Z,98297.41
2018-11-13T02:19:34.240Z,98295.52
2018-11-13T02:20:37.150Z,98293.66
2018-11-13T02:21:40.646Z,98298.61
2018-11-13T02:22:44.692Z,98299.89
2018-11-13T02:23:48.210Z,98300.38
2018-11-13T02:24:51.009Z,98301.58
2018-11-13T02:25:54.410Z,98303.27
2018-11-13T02:26:57.184Z,98302.94
2018-11-13T02:28:00.349Z,98298.06
2018-11-13T02:29:07.829Z,98293.25
2018-11-13T02:30:10.966Z,98290.23
2018-11-13T02:31:15.909Z,98286.06
2018-11-13T02:32:19.068Z,98277.89
2018-11-13T02:33:21.791Z,98272.20
2018-11-13T02:34:24.809Z,98263.00
2018-11-13T02:35:27.492Z,98262.75
2018-11-13T02:36:30.190Z,98262.02
2018-11-13T02:37:33.568Z,98259.87
2018-11-13T02:38:36.225Z,98252.66
2018-11-13T02:39:38.887Z,98254.09
2018-11-13T02:40:42.077Z,98255.13
2018-11-13T02:41:44.758Z,98262.84
2018-11-13T02:42:48.050Z,98261.80
2018-11-13T02:43:51.341Z,98264.82
2018-11-13T02:44:54.048Z,98271.63
2018-11-13T02:45:58.882Z,98269.31
2018-11-13T02:47:02.851Z,98271.25
2018-11-13T02:48:05.572Z,98273.16
2018-11-13T02:49:08.332Z,98268.53
2018-11-13T02:50:11.880Z,98277.41
2018-11-13T02:51:14.600Z,98282.59
2018-11-13T02:52:18.943Z,98283.34
2018-11-13T02:53:21.953Z,98290.93
2018-11-13T02:54:24.635Z,98293.19
2018-11-13T02:55:27.299Z,98292.87
2018-11-13T02:56:29.992Z,98296.95
2018-11-13T02:57:32.644Z,98295.42
2018-11-13T02:58:35.327Z,98290.47
2018-11-13T02:59:38.348Z,98300.07
2018-11-13T03:00:41.486Z,98301.02
2018-11-13T03:01:44.173Z,98304.61
2018-11-13T03:02:46.850Z,98300.37
2018-11-13T03:03:49.525Z,98304.23
2018-11-13T03:04:52.943Z,98307.25
2018-11-13T03:05:56.149Z,98310.47
2018-11-13T03:06:59.720Z,98311.75
2018-11-13T03:08:02.485Z,98307.91
2018-11-13T03:09:07.265Z,98318.97
2018-11-13T03:10:10.590Z,98312.62
2018-11-13T03:11:13.256Z,98317.53
2018-11-13T03:12:16.255Z,98319.59
2018-11-13T03:13:19.011Z,98318.55
2018-11-13T03:14:21.684Z,98320.62
2018-11-13T03:15:24.567Z,98316.33
2018-11-13T03:16:27.423Z,98319.91
2018-11-13T03:17:31.163Z,98316.33
2018-11-13T03:18:35.084Z,98316.54
2018-11-13T03:19:38.391Z,98311.92
2018-11-13T03:20:41.077Z,98310.80
2018-11-13T03:21:43.840Z,98302.64
2018-11-13T03:22:46.831Z,98305.57
2018-11-13T03:23:49.484Z,98312.95
2018-11-13T03:24:53.075Z,98307.02
2018-11-13T03:25:55.719Z,98308.70
2018-11-13T03:26:58.536Z,98305.66
2018-11-13T03:28:01.217Z,98306.05
2018-11-13T03:29:04.906Z,98314.97
2018-11-13T03:30:07.590Z,98307.34
2018-11-13T03:31:10.636Z,98308.06
2018-11-13T03:32:13.667Z,98310.22
2018-11-13T03:33:16.831Z,98315.34
2018-11-13T03:34:19.736Z,98309.10
2018-11-13T03:35:23.722Z,98312.86
2018-11-13T03:36:27.215Z,98310.63
2018-11-13T03:37:29.927Z,98309.27
2018-11-13T03:38:32.572Z,98309.89
2018-11-13T03:39:35.875Z,98307.66
2018-11-13T03:40:38.557Z,98313.11
2018-11-13T03:41:43.391Z,98319.20
2018-11-13T03:42:48.238Z,98323.83
2018-11-13T03:43:50.928Z,98325.19
2018-11-13T03:44:53.601Z,98324.40
2018-11-13T03:45:56.291Z,98326.30
2018-11-13T03:46:58.953Z,98326.30
2018-11-13T03:48:01.681Z,98328.16
2018-11-13T03:49:04.664Z,98337.27
2018-11-13T03:50:07.360Z,98345.06
2018-11-13T03:51:10.055Z,98343.45
2018-11-13T03:52:12.739Z,98344.16
2018-11-13T03:53:15.404Z,98346.96
2018-11-13T03:54:19.576Z,98351.77
2018-11-13T03:55:22.527Z,98355.36
2018-11-13T03:56:25.210Z,98354.64
2018-11-13T03:57:28.452Z,98360.80
2018-11-13T03:58:31.125Z,98358.41
2018-11-13T03:59:34.283Z,98364.09
2018-11-13T04:00:37.605Z,98364.38
2018-11-13T04:01:40.751Z,98372.01
2018-11-13T04:02:43.434Z,98367.92
2018-11-13T04:03:46.084Z,98365.75
2018-11-13T04:04:48.782Z,98375.84
2018-11-13T04:05:51.457Z,98366.89
2018-11-13T04:06:54.149Z,98365.99
2018-11-13T04:07:56.827Z,98369.53
2018-11-13T04:08:59.596Z,98367.42
2018-11-13T04:10:02.343Z,98369.98
2018-11-13T04:11:05.020Z,98361.59
2018-11-13T04:12:07.929Z,98362.45
2018-11-13T04:13:11.119Z,98372.95
2018-11-13T04:14:13.777Z,98368.15
2018-11-13T04:15:17.687Z,98369.76
2018-11-13T04:16:20.386Z,98374.23
2018-11-13T04:17:23.040Z,98382.15
2018-11-13T04:18:25.701Z,98381.19
2018-11-13T04:19:28.849Z,98384.00
2018-11-13T04:20:31.645Z,98392.20
2018-11-13T04:21:34.386Z,98384.80
2018-11-13T04:22:37.241Z,98394.17
2018-11-13T04:23:40.488Z,98384.73
2018-11-13T04:24:43.167Z,98389.34
2018-11-13T04:25:47.309Z,98383.36
2018-11-13T04:26:49.984Z,98389.67
2018-11-13T04:27:52.649Z,98378.61
2018-11-13T04:28:55.383Z,98385.34
2018-11-13T04:29:58.070Z,98382.94
2018-11-13T04:31:00.750Z,98381.33
2018-11-13T04:32:04.345Z,98378.61
2018-11-13T04:33:11.254Z,98377.82
2018-11-13T04:34:14.980Z,98376.14
2018-11-13T04:35:19.028Z,98382.98
2018-11-13T04:36:21.720Z,98367.66
2018-11-13T04:37:25.649Z,98372.30
2018-11-13T04:38:28.719Z,98373.20
2018-11-13T04:39:31.386Z,98358.07
2018-11-13T04:40:34.725Z,98361.50
2018-11-13T04:41:37.389Z,98357.63
2018-11-13T04:42:40.073Z,98354.69
2018-11-13T04:43:42.756Z,98353.05
2018-11-13T04:44:46.467Z,98346.65
2018-11-13T04:45:49.159Z,98350.16
2018-11-13T04:46:51.824Z,98349.73
2018-11-13T04:47:54.467Z,98347.27
2018-11-13T04:48:57.120Z,98348.30
2018-11-13T04:50:00.712Z,98345.28
2018-11-13T04:51:03.850Z,98342.00
2018-11-13T04:52:08.148Z,98345.04
2018-11-13T04:53:11.313Z,98344.54
2018-11-13T04:54:13.960Z,98341.33
2018-11-13T04:55:16.929Z,98345.91
2018-11-13T04:56:19.581Z,98328.55
2018-11-13T04:57:22.717Z,98353.34
2018-11-13T04:58:26.669Z,98353.27
2018-11-13T04:59:29.355Z,98355.75
2018-11-13T05:00:32.232Z,98359.58
2018-11-13T05:01:35.911Z,98370.81
2018-11-13T05:02:39.824Z,98358.72
2018-11-13T05:03:43.522Z,98365.59
2018-11-13T05:04:46.196Z,98365.34
2018-11-13T05:05:50.671Z,98374.36
2018-11-13T05:06:53.382Z,98382.95
2018-11-13T05:07:56.994Z,98385.99
2018-11-13T05:09:01.333Z,98389.19
2018-11-13T05:10:05.346Z,98385.17
2018-11-13T05:11:08.162Z,98395.73
2018-11-13T05:12:10.834Z,98384.45
2018-11-13T05:13:13.576Z,98398.16
2018-11-13T05:14:17.202Z,98399.59
2018-11-13T05:15:19.903Z,98395.59
2018-11-13T05:16:23.047Z,98397.16
2018-11-13T05:17:25.768Z,98401.75
2018-11-13T05:18:28.459Z,98408.80
2018-11-13T05:19:31.100Z,98413.48
2018-11-13T05:20:34.682Z,98415.09
2018-11-13T05:21:38.282Z,98408.87
2018-11-13T05:22:41.404Z,98415.67
2018-11-13T05:23:44.101Z,98410.48
2018-11-13T05:24:47.869Z,98406.58
2018-11-13T05:25:50.831Z,98413.05
2018-11-13T05:26:53.840Z,98410.88
2018-11-13T05:27:56.540Z,98418.25
2018-11-13T05:28:59.225Z,98416.64
2018-11-13T05:30:02.635Z,98410.66
2018-11-13T05:31:05.276Z,98414.77
2018-11-13T05:32:07.959Z,98417.50
2018-11-13T05:33:10.642Z,98416.95
2018-11-13T05:34:13.328Z,98428.81
2018-11-13T05:35:18.544Z,98428.02
2018-11-13T05:36:21.382Z,98427.52
2018-11-13T05:37:24.662Z,98421.83
2018-11-13T05:38:27.660Z,98422.72
2018-11-13T05:39:30.351Z,98422.15
2018-11-13T05:40:33.087Z,98424.88
2018-11-13T05:41:36.313Z,98422.08
2018-11-13T05:42:39.187Z,98423.37
2018-11-13T05:43:41.926Z,98425.63
2018-11-13T05:44:44.939Z,98426.23
2018-11-13T05:45:47.671Z,98431.67
2018-11-13T05:46:50.997Z,98430.81
2018-11-13T05:47:55.064Z,98427.27
2018-11-13T05:48:58.163Z,98419.28
2018-11-13T05:50:01.505Z,98416.99
2018-11-13T05:51:04.882Z,98412.98
2018-11-13T05:52:08.366Z,98415.38
2018-11-13T05:53:11.070Z,98416.56
2018-11-13T05:54:14.288Z,98418.81
2018-11-13T05:55:19.721Z,98419.61
2018-11-13T05:56:22.540Z,98426.48
2018-11-13T05:57:27.027Z,98428.95
2018-11-13T05:58:30.674Z,98430.56
2018-11-13T05:59:33.666Z,98429.20
2018-11-13T06:00:36.388Z,98431.48
2018-11-13T06:01:39.138Z,98437.57
2018-11-13T06:02:41.970Z,98435.14
2018-11-13T06:03:45.065Z,98438.97
2018-11-13T06:04:48.157Z,98445.20
2018-11-13T06:05:50.853Z,98447.06
2018-11-13T06:06:54.465Z,98446.24
2018-11-13T06:07:57.378Z,98449.28
2018-11-13T06:09:00.039Z,98452.25
2018-11-13T06:10:03.644Z,98462.16
2018-11-13T06:11:06.756Z,98465.56
2018-11-13T06:12:10.387Z,98463.95
2018-11-13T06:13:13.042Z,98457.41
2018-11-13T06:14:16.167Z,98457.66
2018-11-13T06:15:18.831Z,98463.09
2018-11-13T06:16:23.033Z,98468.53
2018-11-13T06:17:26.750Z,98468.78
2018-11-13T06:18:29.415Z,98466.06
2018-11-13T06:19:32.732Z,98461.16
2018-11-13T06:20:35.425Z,98472.80
2018-11-13T06:21:39.131Z,98472.80
2018-11-13T06:22:43.052Z,98459.80
2018-11-13T06:23:45.731Z,98469.89
2018-11-13T06:24:48.400Z,98473.41
2018-11-13T06:25:52.434Z,98471.19
2018-11-13T06:26:56.179Z,98466.31
2018-11-13T06:27:59.142Z,98477.73
2018-11-13T06:29:02.682Z,98474.16
2018-11-13T06:30:05.455Z,98471.91
2018-11-13T06:43:58.951Z,98489.79
2018-11-13T06:45:01.818Z,98487.45
2018-11-13T06:46:04.707Z,98491.97
2018-11-13T06:47:07.642Z,98490.05
2018-11-13T06:48:10.396Z,98490.30
2018-11-13T06:49:15.513Z,98494.69
2018-11-13T06:50:18.350Z,98502.35
2018-11-13T06:51:21.056Z,98511.33
2018-11-13T06:52:24.633Z,98539.01
2018-11-13T06:53:29.177Z,98535.18
2018-11-13T06:54:31.875Z,98539.01
2018-11-13T06:55:37.855Z,98532.46
2018-11-13T06:56:40.537Z,98534.33
2018-11-13T06:57:43.242Z,98513.98
2018-11-13T06:58:45.983Z,98510.70
2018-11-13T06:59:48.756Z,98509.59
2018-11-13T07:00:51.419Z,98510.38
2018-11-13T07:01:54.637Z,98511.42
2018-11-13T07:02:58.815Z,98513.09
2018-11-13T07:04:01.486Z,98513.73
2018-11-13T07:05:04.215Z,98512.91
2018-11-13T07:06:13.587Z,98513.16
2018-11-13T07:07:16.315Z,98518.29
2018-11-13T07:08:24.698Z,98503.96
2018-11-13T07:09:27.427Z,98505.33
2018-11-13T07:10:30.923Z,98512.98
2018-11-13T07:11:34.319Z,98510.89
2018-11-13T07:12:36.976Z,98513.62
2018-11-13T07:13:39.664Z,98511.44
2018-11-13T07:14:46.477Z,98515.23
2018-11-13T07:15:49.348Z,98514.66
2018-11-13T07:16:52.097Z,98518.20
2018-11-13T07:17:58.142Z,98526.30
2018-11-13T07:19:00.831Z,98527.94
2018-11-13T07:20:03.606Z,98526.05
2018-11-13T07:21:06.733Z,98518.36
2018-11-13T07:22:09.960Z,98524.11
2018-11-13T07:23:12.761Z,98527.66
2018-11-13T07:24:15.444Z,98535.81
2018-11-13T07:25:21.505Z,98531.55
2018-11-13T07:26:28.673Z,98535.88
2018-11-13T07:27:34.462Z,98538.60
2018-11-13T07:28:37.332Z,98538.53
2018-11-13T07:29:40.833Z,98536.10
2018-11-13T07:30:43.845Z,98537.84
2018-11-13T07:31:47.667Z,98538.82
2018-11-13T07:32:50.395Z,98534.81
2018-11-13T07:33:54.813Z,98539.20
2018-11-13T07:34:57.942Z,98541.00
2018-11-13T07:36:00.844Z,98539.01
2018-11-13T07:37:04.074Z,98538.56
2018-11-13T07:38:06.798Z,98547.04
2018-11-13T07:39:10.334Z,98542.30
2018-11-13T07:40:15.088Z,98547.61
2018-11-13T07:41:20.296Z,98550.65
2018-11-13T07:42:24.653Z,98553.78
2018-11-13T07:43:27.417Z,98552.92
2018-11-13T07:44:30.213Z,98558.11
2018-11-13T07:45:34.189Z,98546.70
2018-11-13T07:46:39.126Z,98556.75
2018-11-13T07:47:42.687Z,98562.83
2018-11-13T07:48:45.565Z,98569.25
2018-11-13T07:49:48.919Z,98578.77
2018-11-13T07:50:51.627Z,98576.84
2018-11-13T07:51:55.936Z,98584.27
2018-11-13T07:52:59.060Z,98577.43
2018-11-13T07:54:02.574Z,98577.43
2018-11-13T07:55:06.328Z,98581.73
2018-11-13T07:56:11.573Z,98576.11
2018-11-13T07:57:14.542Z,98572.47
2018-11-13T07:58:21.596Z,98573.70
2018-11-13T07:59:24.680Z,98571.72
2018-11-13T08:00:27.362Z,98577.85
2018-11-13T08:01:30.292Z,98566.84
2018-11-13T08:02:34.221Z,98570.36
2018-11-13T08:03:39.084Z,98568.39
2018-11-13T08:04:43.191Z,98569.91
2018-11-13T08:05:47.236Z,98570.23
2018-11-13T08:06:50.156Z,98579.02
2018-11-13T08:07:53.679Z,98575.73
2018-11-13T08:08:58.227Z,98576.62
2018-11-13T08:10:03.507Z,98577.16
2018-11-13T08:11:08.181Z,98574.44
2018-11-13T08:12:11.720Z,98578.77
2018-11-13T08:13:15.257Z,98574.13
2018-11-13T08:14:18.254Z,98579.50
2018-11-13T08:15:21.267Z,98575.92
2018-11-13T08:16:25.508Z,98581.11
2018-11-13T08:17:29.265Z,98580.86
2018-11-13T08:18:34.104Z,98587.97
2018-11-13T08:19:37.993Z,98585.13
2018-11-13T08:20:41.480Z,98590.03
2018-11-13T08:21:45.375Z,98585.44
2018-11-13T08:22:48.655Z,98586.55
2018-11-13T08:23:51.450Z,98590.31
2018-11-13T08:24:55.669Z,98589.90
2018-11-13T08:25:58.703Z,98595.03
2018-11-13T08:27:02.558Z,98589.27
2018-11-13T08:28:05.499Z,98593.35
2018-11-13T08:29:09.135Z,98603.44
2018-11-13T08:30:13.746Z,98603.06
2018-11-13T08:31:16.690Z,98600.72
2018-11-13T08:32:20.352Z,98606.94
2018-11-13T08:33:23.711Z,98605.41
2018-11-13T08:34:26.462Z,98610.75
2018-11-13T08:35:29.185Z,98604.19
2018-11-13T08:36:33.661Z,98608.27
2018-11-13T08:37:43.753Z,98618.84
2018-11-13T08:38:51.414Z,98611.45
2018-11-13T08:39:55.415Z,98613.13
2018-11-13T08:40:58.104Z,98621.88
2018-11-13T08:42:01.432Z,98622.87
2018-11-13T08:43:05.381Z,98621.98
2018-11-13T08:44:09.742Z,98625.20
2018-11-13T08:45:19.366Z,98627.05
2018-11-13T08:46:22.603Z,98633.02
2018-11-13T08:47:28.028Z,98635.94
2018-11-13T08:48:30.930Z,98633.66
2018-11-13T08:49:35.341Z,98642.48
2018-11-13T08:50:38.180Z,98641.88
2018-11-13T08:51:42.423Z,98634.26
2018-11-13T08:52:45.902Z,98645.20
2018-11-13T08:53:48.683Z,98645.27
2018-11-13T08:54:53.133Z,98650.99
2018-11-13T08:55:56.206Z,98645.71
2018-11-13T08:56:59.823Z,98643.41
2018-11-13T08:58:02.561Z,98654.61
2018-11-13T08:59:05.712Z,98655.59
2018-11-13T09:00:11.212Z,98655.48
2018-11-13T09:01:15.577Z,98654.73
2018-11-13T09:02:19.749Z,98650.33
2018-11-13T09:03:25.919Z,98651.88
2018-11-13T09:04:28.705Z,98653.31
2018-11-13T09:05:32.425Z,98662.39
2018-11-13T09:06:39.807Z,98649.03
2018-11-13T09:07:43.797Z,98651.15
2018-11-13T09:08:48.511Z,98637.53
2018-11-13T09:09:52.600Z,98654.84
2018-11-13T09:10:55.593Z,98637.28
2018-11-13T09:11:59.963Z,98646.37
2018-11-13T09:13:05.405Z,98663.62
2018-11-13T09:14:10.557Z,98671.91
2018-11-13T09:15:14.415Z,98659.46
2018-11-13T09:16:18.226Z,98665.73
2018-11-13T09:17:21.971Z,98663.80
2018-11-13T09:18:25.581Z,98676.67
2018-11-13T09:19:35.656Z,98677.79
2018-11-13T09:20:41.361Z,98669.69
2018-11-13T09:21:44.247Z,98672.45
2018-11-13T09:22:47.807Z,98685.03
2018-11-13T09:23:53.667Z,98673.06
2018-11-13T09:25:00.510Z,98683.28
2018-11-13T09:26:04.388Z,98666.39
2018-11-13T09:27:07.392Z,98688.88
2018-11-13T09:28:10.408Z,98706.57
2018-11-13T09:29:16.941Z,98706.06
2018-11-13T09:30:23.660Z,98696.28
2018-11-13T09:31:27.578Z,98695.80
2018-11-13T09:32:32.664Z,98702.23
2018-11-13T09:33:36.738Z,98697.70
2018-11-13T09:34:39.916Z,98701.12
2018-11-13T09:35:42.726Z,98703.03
2018-11-13T09:36:48.666Z,98694.19
2018-11-13T09:37:51.456Z,98697.35
2018-11-13T09:38:54.754Z,98700.36
2018-11-13T09:39:58.535Z,98688.78
2018-11-13T09:41:04.676Z,98680.17
2018-11-13T09:42:08.292Z,98695.14
2018-11-13T09:43:12.378Z,98695.07
2018-11-13T09:44:15.525Z,98687.98
2018-11-13T09:45:19.228Z,98693.66
2018-11-13T09:46:22.063Z,98691.29
2018-11-13T09:47:24.975Z,98691.22
2018-11-13T09:48:27.939Z,98688.76
2018-11-13T09:49:31.433Z,98683.98
2018-11-13T09:50:34.822Z,98687.15
2018-11-13T09:51:41.726Z,98691.61
2018-11-13T09:52:47.052Z,98690.76
2018-11-13T09:53:51.555Z,98686.92
2018-11-13T09:54:55.094Z,98711.95
2018-11-13T09:55:58.090Z,98689.03
2018-11-13T09:57:01.220Z,98688.92
2018-11-13T09:58:05.693Z,98700.94
2018-11-13T09:59:08.589Z,98687.89
2018-11-13T10:00:14.162Z,98683.88
2018-11-13T10:01:17.556Z,98677.38
2018-11-13T10:02:21.864Z,98697.30
2018-11-13T10:03:24.735Z,98677.30
2018-11-13T10:04:27.444Z,98684.97
2018-11-13T10:05:29.691Z,98688.86
2018-11-13T10:06:32.912Z,98687.97
2018-11-13T10:07:36.426Z,98687.97
2018-11-13T10:08:39.197Z,98689.61
2018-11-13T10:09:42.585Z,98690.52
2018-11-13T10:10:46.817Z,98702.41
2018-11-13T10:11:53.139Z,98693.05
2018-11-13T10:12:57.509Z,98689.61
2018-11-13T10:15:23.464Z,98704.48
2018-11-13T10:16:27.564Z,98706.22
2018-11-13T10:17:31.652Z,98700.80
2018-11-13T10:18:35.253Z,98704.20
2018-11-13T10:19:39.268Z,98713.10
2018-11-13T10:20:42.605Z,98699.40
2018-11-13T10:21:45.540Z,98709.80
2018-11-13T10:22:50.962Z,98707.67
2018-11-13T10:23:54.503Z,98700.08
2018-11-13T10:24:57.406Z,98695.09
2018-11-13T10:26:02.357Z,98706.41
2018-11-13T10:27:06.069Z,98691.61
2018-11-13T10:28:09.580Z,98701.47
2018-11-13T10:29:13.865Z,98699.18
2018-11-13T10:30:20.352Z,98696.06
2018-11-13T10:31:23.492Z,98695.31
2018-11-13T10:32:27.502Z,98696.20
2018-11-13T10:33:32.173Z,98701.62
2018-11-13T10:34:35.342Z,98708.59
2018-11-13T10:35:38.504Z,98716.55
2018-11-13T10:36:41.622Z,98692.73
2018-11-13T10:37:47.212Z,98692.23
2018-11-13T10:38:51.684Z,98706.64
2018-11-13T10:39:55.213Z,98690.97
2018-11-13T10:41:00.092Z,98693.33
2018-11-13T10:42:04.529Z,98691.64
2018-11-13T10:43:10.637Z,98685.12
2018-11-13T10:44:13.474Z,98684.91
2018-11-13T10:45:20.824Z,98686.20
2018-11-13T10:46:24.692Z,98689.51
2018-11-13T10:47:28.630Z,98685.34
2018-11-13T10:48:31.432Z,98681.92
2018-11-13T10:49:37.592Z,98677.70
2018-11-13T10:50:41.422Z,98680.05
2018-11-13T10:51:45.731Z,98690.87
2018-11-13T10:52:50.044Z,98689.03
2018-11-13T10:53:53.687Z,98691.08
2018-11-13T10:54:57.261Z,98681.69
2018-11-13T10:56:00.913Z,98681.33
2018-11-13T10:57:05.439Z,98658.37
2018-11-13T10:58:10.350Z,98683.25
2018-11-13T10:59:14.901Z,98685.14
2018-11-13T11:00:24.338Z,98685.24
2018-11-13T11:01:33.344Z,98683.08
2018-11-13T11:02:42.053Z,98672.88
2018-11-13T11:03:51.048Z,98692.67
2018-11-13T11:04:54.862Z,98685.50
2018-11-13T11:05:59.305Z,98685.16
2018-11-13T11:07:05.270Z,98680.97
2018-11-13T11:08:09.196Z,98686.70
2018-11-13T11:09:12.024Z,98670.78
2018-11-13T11:10:15.533Z,98682.94
2018-11-13T11:11:20.549Z,98695.88
2018-11-13T11:12:29.575Z,98687.50
2018-11-13T11:13:33.761Z,98664.48
2018-11-13T11:14:37.499Z,98687.42
2018-11-13T11:15:42.104Z,98686.41
2018-11-13T11:16:45.293Z,98683.17
2018-11-13T11:17:49.631Z,98683.02
2018-11-13T11:18:52.683Z,98676.27
2018-11-13T11:19:56.328Z,98647.84
2018-11-13T11:21:01.040Z,98685.90
2018-11-13T11:22:04.078Z,98701.78
2018-11-13T11:23:07.262Z,98687.02
2018-11-13T11:24:14.663Z,98682.40
2018-11-13T11:25:20.735Z,98690.58
2018-11-13T11:26:25.967Z,98670.97
2018-11-13T11:27:28.799Z,98678.21
2018-11-13T11:28:31.545Z,98668.86
2018-11-13T11:29:34.808Z,98690.63
2018-11-13T11:43:04.476Z,98670.06
2018-11-13T11:44:08.087Z,98631.45
2018-11-13T11:45:12.008Z,98653.69
2018-11-13T11:46:14.754Z,98666.50
2018-11-13T11:47:20.565Z,98691.47
2018-11-13T11:48:23.565Z,98669.89
2018-11-13T11:49:27.073Z,98633.39
2018-11-13T11:50:31.298Z,98681.69
2018-11-13T11:51:35.108Z,98679.78
2018-11-13T11:52:38.289Z,98675.37
2018-11-13T11:53:41.448Z,98664.89
2018-11-13T11:54:45.148Z,98669.94
2018-11-13T11:55:49.253Z,98672.17
2018-11-13T11:56:52.392Z,98694.66
2018-11-13T11:57:55.166Z,98675.14
2018-11-13T11:58:58.564Z,98695.77
2018-11-13T12:00:03.584Z,98703.06
2018-11-13T12:01:08.594Z,98705.45
2018-11-13T12:02:11.515Z,98693.97
2018-11-13T12:03:15.288Z,98694.29
2018-11-13T12:04:20.295Z,98690.05
2018-11-13T12:05:25.121Z,98696.84
2018-11-13T12:06:28.773Z,98690.84
2018-11-13T12:07:32.501Z,98691.39
2018-11-13T12:08:36.620Z,98697.17
2018-11-13T12:09:41.529Z,98705.36
2018-11-13T12:10:44.842Z,98697.17
2018-11-13T12:11:47.887Z,98697.94
2018-11-13T12:12:51.489Z,98691.56
2018-11-13T12:13:55.485Z,98706.46
2018-11-13T12:14:58.295Z,98698.14
2018-11-13T12:16:03.239Z,98687.16
2018-11-13T12:17:08.590Z,98685.47
2018-11-13T12:18:11.344Z,98702.87
2018-11-13T12:19:14.458Z,98711.48
2018-11-13T12:20:19.557Z,98700.47
2018-11-13T12:21:24.024Z,98696.63
2018-11-13T12:22:27.217Z,98704.06
2018-11-13T12:23:30.803Z,98706.06
2018-11-13T12:24:35.564Z,98702.66
2018-11-13T12:25:38.471Z,98702.34
2018-11-13T12:26:42.124Z,98689.64
2018-11-13T12:27:49.363Z,98702.09
2018-11-13T12:28:53.366Z,98711.66
2018-11-13T12:29:57.657Z,98715.31
2018-11-13T12:31:00.846Z,98710.52
2018-11-13T12:32:05.901Z,98697.68
2018-11-13T12:33:09.830Z,98687.56
2018-11-13T12:34:13.353Z,98705.28
2018-11-13T12:35:19.308Z,98716.05
2018-11-13T12:36:23.248Z,98703.99
2018-11-13T12:37:26.306Z,98711.70
2018-11-13T12:38:29.866Z,98707.59
2018-11-13T12:39:33.786Z,98711.88
2018-11-13T12:40:38.567Z,98708.00
2018-11-13T12:41:41.779Z,98715.45
2018-11-13T12:42:46.462Z,98720.19
2018-11-13T12:43:48.847Z,98713.86
2018-11-13T12:44:51.999Z,98718.71
2018-11-13T12:45:56.629Z,98714.50
2018-11-13T12:47:01.306Z,98716.70
2018-11-13T12:48:18.461Z,98718.69
2018-11-13T12:49:27.478Z,98716.80
2018-11-13T12:50:35.052Z,98716.80
2018-11-13T12:51:42.799Z,98715.23
2018-11-13T12:52:47.204Z,98714.84
2018-11-13T12:53:51.302Z,98716.72
2018-11-13T12:54:54.363Z,98715.63